Saint Libory, Illinois
Current Conditions -  °F | °C
As of 11:35 AM on Thursday 23 Oct 2014 (Local Time) from KSAR Reporting Station
Clear Clear  
Wind Chill: 56°   Ceiling: Unl
Heat Index: 56°   Visibility: 10mi
Dew Point: 45°   Wind: 8mph
Humidity: 65%   Direction: 190°S
Pressure: 30.23"   Gusts: NA
Location:  38.36°N, 89.71°W
Report Text: KSAR 231635Z AUTO 19007KT 10SM CLR 14/07 A3023 RMK AO2 T01350071
Loading
Personal Weather Stations






























Interactive Weather Map
Tropical Storm Tracking
New forecast layout! Learn more

10-Day Weather Forecast

Advertisements
Track Severe Weather on mobile